Tatsuharu Maru — JD3984 — position and weather

sailwx.info

Track history (hours):
 
Tides and Currents Weather Stations Pressure Air Temp Water Temp Dewpoint Dewpoint Depression Visibility Wind Speed Wind Dir Waves Ship Positions

Tatsuharu Maru

Last reported at 2017-Oct-17 23:58 UTC. Time now 2017-Oct-18 00:19 UTC.
Position N 34°22' E 135°10'.

Length 75 m; draft 4.5 m.

Type: Cargo ship. MMSI: 431007656.

Date/timePositionNaut miles runAvg speedWind from/ knotsBaromVisibWave heightAir tempDewpointWater temp
2017-Oct-17 23:58N 34°22' E 135°10'1 0.6
2017-Oct-17 22:33N 34°23' E 135°11'0 0.0
2017-Oct-17 22:21N 34°23' E 135°11'0 0.0
2017-Oct-17 21:57N 34°23' E 135°11'0 0.0
2017-Oct-17 21:27N 34°23' E 135°11'0 0.1
2017-Oct-17 20:51N 34°23' E 135°11'0 0.0
2017-Oct-17 20:27N 34°23' E 135°11'0 0.0
2017-Oct-17 19:39N 34°23' E 135°11'0 0.0
2017-Oct-17 19:21N 34°23' E 135°11'0 0.0
2017-Oct-17 18:57N 34°23' E 135°11'0 0.0
2017-Oct-17 17:21N 34°23' E 135°11'0 0.0
2017-Oct-17 16:33N 34°23' E 135°11'0 0.0
2017-Oct-17 16:21N 34°23' E 135°11'0 0.0
2017-Oct-17 15:51N 34°23' E 135°11'0 0.0
2017-Oct-17 13:57N 34°23' E 135°11'0 0.0
2017-Oct-17 12:15N 34°23' E 135°11'0 0.0
2017-Oct-17 11:51N 34°23' E 135°11'0 0.0
2017-Oct-17 11:15N 34°23' E 135°11'0 0.0
2017-Oct-17 06:21N 34°23' E 135°11'0 0.0
2017-Oct-17 00:27N 34°23' E 135°11'0 0.0
2017-Oct-16 23:57N 34°23' E 135°11'0 0.0
2017-Oct-16 23:21N 34°23' E 135°11'0 0.0
2017-Oct-16 22:45N 34°23' E 135°11'0 0.0
2017-Oct-16 22:27N 34°23' E 135°11'0 0.0
2017-Oct-16 21:45N 34°23' E 135°11'0 0.0
2017-Oct-16 21:27N 34°23' E 135°11'0 0.0
2017-Oct-16 16:21N 34°23' E 135°11'0 0.0
2017-Oct-16 15:57N 34°23' E 135°11'0 0.0
2017-Oct-16 15:09N 34°23' E 135°11'0 0.0
2017-Oct-16 14:33N 34°23' E 135°11'0 0.1
2017-Oct-16 14:27N 34°23' E 135°11'0 0.0
2017-Oct-16 10:21N 34°23' E 135°11'0 0.0
2017-Oct-16 09:45N 34°23' E 135°11'0 0.0
2017-Oct-16 09:27N 34°23' E 135°11'0 0.0
2017-Oct-16 08:57N 34°23' E 135°11'0 0.0
2017-Oct-16 07:27N 34°23' E 135°11'0 0.0
2017-Oct-15 18:33N 34°23' E 135°11'0 0.1
2017-Oct-15 18:27N 34°23' E 135°11'0 0.0
2017-Oct-15 17:57N 34°23' E 135°11'0 0.0
2017-Oct-15 15:39N 34°23' E 135°11'0 0.0
2017-Oct-15 15:21N 34°23' E 135°11'0 0.0
2017-Oct-15 14:51N 34°23' E 135°11'0 0.0
2017-Oct-15 13:21N 34°23' E 135°11'0 0.0
2017-Oct-15 12:57N 34°23' E 135°11'0 0.0
2017-Oct-15 12:27N 34°23' E 135°11'0 0.0
2017-Oct-15 11:51N 34°23' E 135°11'0 0.0
2017-Oct-15 11:21N 34°23' E 135°11'1 2.9
2017-Oct-15 10:57N 34°23' E 135°10'510.8
2017-Oct-15 10:30N 34°27' E 135°06'510.3
2017-Oct-15 10:00N 34°31' E 135°02'5 9.4
2017-Oct-15 09:30N 34°36' E 135°03'4 7.8
2017-Oct-15 08:57N 34°37' E 134°57'8 0.2
2017-Oct-13 21:42N 34°41' E 134°49'0 0.1
2017-Oct-13 17:45N 34°41' E 134°49'6 0.3
2017-Oct-12 17:08N 34°37' E 134°55'212.4
2017-Oct-12 17:00N 34°37' E 134°57'611.9
2017-Oct-12 16:29N 34°36' E 135°04'510.7
2017-Oct-12 16:00N 34°30' E 135°04'611.7
2017-Oct-12 15:28N 34°24' E 135°02'1011.0
2017-Oct-12 14:33N 34°14' E 134°60'111.0
2017-Oct-12 14:25N 34°13' E 135°00'512.1
2017-Oct-12 14:00N 34°08' E 135°01'  
2017-Oct-10 05:07N 35°33' E 139°54'211.4
2017-Oct-10 04:57N 35°31' E 139°52'510.0
2017-Oct-10 04:30N 35°29' E 139°48'5 9.5
2017-Oct-10 04:00N 35°27' E 139°42'0 0.2
2017-Oct-10 03:28N 35°27' E 139°42'0 0.0
2017-Oct-10 02:58N 35°27' E 139°42'0 0.0
2017-Oct-10 02:28N 35°27' E 139°42'0 0.1
2017-Oct-10 01:52N 35°27' E 139°42'0 0.0
2017-Oct-10 01:25N 35°27' E 139°42'0 0.0
2017-Oct-10 00:58N 35°27' E 139°42'0 0.1
2017-Oct-10 00:28N 35°27' E 139°42'0 0.0
2017-Oct-09 23:58N 35°27' E 139°42'0 0.0
2017-Oct-09 23:28N 35°27' E 139°42'0 0.0
2017-Oct-09 22:58N 35°27' E 139°42'0 0.1
2017-Oct-09 22:28N 35°27' E 139°42'0 0.0
2017-Oct-09 20:07N 35°27' E 139°42'0 0.0
2017-Oct-09 19:37N 35°27' E 139°42'0 0.0
2017-Oct-09 18:31N 35°27' E 139°42'0 0.0
2017-Oct-09 18:25N 35°27' E 139°42'0 0.0
2017-Oct-09 09:55N 35°27' E 139°42'0 0.0
2017-Oct-09 00:01N 35°27' E 139°42'0 0.0
2017-Oct-08 23:49N 35°27' E 139°42'0 0.0
2017-Oct-08 23:19N 35°27' E 139°42'0 0.0
2017-Oct-08 22:01N 35°27' E 139°42'0 0.0
2017-Oct-08 21:46N 35°27' E 139°42'4 6.9
2017-Oct-08 21:09N 35°23' E 139°43'211.4
2017-Oct-08 21:00N 35°21' E 139°43'611.6
2017-Oct-08 20:30N 35°16' E 139°46'611.1
2017-Oct-08 20:00N 35°11' E 139°46'510.9
2017-Oct-08 19:30N 35°06' E 139°43'510.9
2017-Oct-08 19:00N 35°02' E 139°38'510.9
2017-Oct-08 18:30N 34°58' E 139°33'  
Track history (hours):
 
Tides and Currents Weather Stations Pressure Air Temp Water Temp Dewpoint Dewpoint Depression Visibility Wind Speed Wind Dir Waves Ship Positions

Tatsuharu Maru

Last reported at 2017-Oct-17 23:58 UTC. Time now 2017-Oct-18 00:19 UTC.
Position N 34°22' E 135°10'.

Length 75 m; draft 4.5 m.

Type: Cargo ship. MMSI: 431007656.

Date/timePositionNaut miles runAvg speedWind from/ knotsBaromVisibWave heightAir tempDewpointWater temp
2017-Oct-17 23:58N 34°22' E 135°10'1 0.6
2017-Oct-17 22:33N 34°23' E 135°11'0 0.0
2017-Oct-17 22:21N 34°23' E 135°11'0 0.0
2017-Oct-17 21:57N 34°23' E 135°11'0 0.0
2017-Oct-17 21:27N 34°23' E 135°11'0 0.1
2017-Oct-17 20:51N 34°23' E 135°11'0 0.0
2017-Oct-17 20:27N 34°23' E 135°11'0 0.0
2017-Oct-17 19:39N 34°23' E 135°11'0 0.0
2017-Oct-17 19:21N 34°23' E 135°11'0 0.0
2017-Oct-17 18:57N 34°23' E 135°11'0 0.0
2017-Oct-17 17:21N 34°23' E 135°11'0 0.0
2017-Oct-17 16:33N 34°23' E 135°11'0 0.0
2017-Oct-17 16:21N 34°23' E 135°11'0 0.0
2017-Oct-17 15:51N 34°23' E 135°11'0 0.0
2017-Oct-17 13:57N 34°23' E 135°11'0 0.0
2017-Oct-17 12:15N 34°23' E 135°11'0 0.0
2017-Oct-17 11:51N 34°23' E 135°11'0 0.0
2017-Oct-17 11:15N 34°23' E 135°11'0 0.0
2017-Oct-17 06:21N 34°23' E 135°11'0 0.0
2017-Oct-17 00:27N 34°23' E 135°11'0 0.0
2017-Oct-16 23:57N 34°23' E 135°11'0 0.0
2017-Oct-16 23:21N 34°23' E 135°11'0 0.0
2017-Oct-16 22:45N 34°23' E 135°11'0 0.0
2017-Oct-16 22:27N 34°23' E 135°11'0 0.0
2017-Oct-16 21:45N 34°23' E 135°11'0 0.0
2017-Oct-16 21:27N 34°23' E 135°11'0 0.0
2017-Oct-16 16:21N 34°23' E 135°11'0 0.0
2017-Oct-16 15:57N 34°23' E 135°11'0 0.0
2017-Oct-16 15:09N 34°23' E 135°11'0 0.0
2017-Oct-16 14:33N 34°23' E 135°11'0 0.1
2017-Oct-16 14:27N 34°23' E 135°11'0 0.0
2017-Oct-16 10:21N 34°23' E 135°11'0 0.0
2017-Oct-16 09:45N 34°23' E 135°11'0 0.0
2017-Oct-16 09:27N 34°23' E 135°11'0 0.0
2017-Oct-16 08:57N 34°23' E 135°11'0 0.0
2017-Oct-16 07:27N 34°23' E 135°11'0 0.0
2017-Oct-15 18:33N 34°23' E 135°11'0 0.1
2017-Oct-15 18:27N 34°23' E 135°11'0 0.0
2017-Oct-15 17:57N 34°23' E 135°11'0 0.0
2017-Oct-15 15:39N 34°23' E 135°11'0 0.0
2017-Oct-15 15:21N 34°23' E 135°11'0 0.0
2017-Oct-15 14:51N 34°23' E 135°11'0 0.0
2017-Oct-15 13:21N 34°23' E 135°11'0 0.0
2017-Oct-15 12:57N 34°23' E 135°11'0 0.0
2017-Oct-15 12:27N 34°23' E 135°11'0 0.0
2017-Oct-15 11:51N 34°23' E 135°11'0 0.0
2017-Oct-15 11:21N 34°23' E 135°11'1 2.9
2017-Oct-15 10:57N 34°23' E 135°10'510.8
2017-Oct-15 10:30N 34°27' E 135°06'510.3
2017-Oct-15 10:00N 34°31' E 135°02'5 9.4
2017-Oct-15 09:30N 34°36' E 135°03'4 7.8
2017-Oct-15 08:57N 34°37' E 134°57'8 0.2
2017-Oct-13 21:42N 34°41' E 134°49'0 0.1
2017-Oct-13 17:45N 34°41' E 134°49'6 0.3
2017-Oct-12 17:08N 34°37' E 134°55'212.4
2017-Oct-12 17:00N 34°37' E 134°57'611.9
2017-Oct-12 16:29N 34°36' E 135°04'510.7
2017-Oct-12 16:00N 34°30' E 135°04'611.7
2017-Oct-12 15:28N 34°24' E 135°02'1011.0
2017-Oct-12 14:33N 34°14' E 134°60'111.0
2017-Oct-12 14:25N 34°13' E 135°00'512.1
2017-Oct-12 14:00N 34°08' E 135°01'  
2017-Oct-10 05:07N 35°33' E 139°54'211.4
2017-Oct-10 04:57N 35°31' E 139°52'510.0
2017-Oct-10 04:30N 35°29' E 139°48'5 9.5
2017-Oct-10 04:00N 35°27' E 139°42'0 0.2
2017-Oct-10 03:28N 35°27' E 139°42'0 0.0
2017-Oct-10 02:58N 35°27' E 139°42'0 0.0
2017-Oct-10 02:28N 35°27' E 139°42'0 0.1
2017-Oct-10 01:52N 35°27' E 139°42'0 0.0
2017-Oct-10 01:25N 35°27' E 139°42'0 0.0
2017-Oct-10 00:58N 35°27' E 139°42'0 0.1
2017-Oct-10 00:28N 35°27' E 139°42'0 0.0
2017-Oct-09 23:58N 35°27' E 139°42'0 0.0
2017-Oct-09 23:28N 35°27' E 139°42'0 0.0
2017-Oct-09 22:58N 35°27' E 139°42'0 0.1
2017-Oct-09 22:28N 35°27' E 139°42'0 0.0
2017-Oct-09 20:07N 35°27' E 139°42'0 0.0
2017-Oct-09 19:37N 35°27' E 139°42'0 0.0
2017-Oct-09 18:31N 35°27' E 139°42'0 0.0
2017-Oct-09 18:25N 35°27' E 139°42'0 0.0
2017-Oct-09 09:55N 35°27' E 139°42'0 0.0
2017-Oct-09 00:01N 35°27' E 139°42'0 0.0
2017-Oct-08 23:49N 35°27' E 139°42'0 0.0
2017-Oct-08 23:19N 35°27' E 139°42'0 0.0
2017-Oct-08 22:01N 35°27' E 139°42'0 0.0
2017-Oct-08 21:46N 35°27' E 139°42'4 6.9
2017-Oct-08 21:09N 35°23' E 139°43'211.4
2017-Oct-08 21:00N 35°21' E 139°43'611.6
2017-Oct-08 20:30N 35°16' E 139°46'611.1
2017-Oct-08 20:00N 35°11' E 139°46'510.9
2017-Oct-08 19:30N 35°06' E 139°43'510.9
2017-Oct-08 19:00N 35°02' E 139°38'510.9
2017-Oct-08 18:30N 34°58' E 139°33'  

Dump ship's entire track history